Time,TemperatureF,DewpointF,PressureIn,WindDirection,WindDirectionDegrees,WindSpeedMPH,WindSpeedGustMPH,Humidity,HourlyPrecipIn,Conditions,Clouds,dailyrainin,SoftwareType,DateUTC
2013-07-23 00:11:00,77.1,73.0,29.94,West,267,0.0,6.0,87,0.00,,,0.00,weatherlink.com 1.10,2013-07-23 04:11:00,
2013-07-23 00:26:00,77.0,73.0,29.94,WSW,257,1.0,3.0,87,0.00,,,0.00,weatherlink.com 1.10,2013-07-23 04:26:00,
2013-07-23 00:41:00,76.9,73.0,29.94,WSW,240,2.0,2.0,87,0.00,,,0.00,weatherlink.com 1.10,2013-07-23 04:41:00,
2013-07-23 00:56:00,76.8,73.0,29.93,WSW,240,1.0,7.0,87,0.00,,,0.00,weatherlink.com 1.10,2013-07-23 04:56:00,
2013-07-23 01:11:00,76.7,73.0,29.93,East,88,1.0,3.0,88,0.00,,,0.00,weatherlink.com 1.10,2013-07-23 05:11:00,
2013-07-23 01:26:00,76.4,73.0,29.94,SE,132,1.0,4.0,89,0.00,,,0.00,weatherlink.com 1.10,2013-07-23 05:26:00,
2013-07-23 01:41:00,76.2,73.0,29.93,WSW,256,1.0,2.0,89,0.00,,,0.00,weatherlink.com 1.10,2013-07-23 05:41:00,
2013-07-23 01:57:00,76.0,73.0,29.93,West,262,1.0,2.0,90,0.00,,,0.00,weatherlink.com 1.10,2013-07-23 05:57:00,
2013-07-23 02:12:00,75.9,73.0,29.92,SE,145,1.0,3.0,91,0.00,,,0.00,weatherlink.com 1.10,2013-07-23 06:12:00,
2013-07-23 02:27:00,75.7,73.0,29.92,North,357,1.0,2.0,92,0.00,,,0.00,weatherlink.com 1.10,2013-07-23 06:27:00,
2013-07-23 02:42:00,75.6,73.0,29.92,SW,217,1.0,2.0,92,0.00,,,0.00,weatherlink.com 1.10,2013-07-23 06:42:00,
2013-07-23 02:57:00,75.4,73.0,29.92,NE,35,1.0,1.0,92,0.00,,,0.00,weatherlink.com 1.10,2013-07-23 06:57:00,
2013-07-23 03:12:00,75.3,73.0,29.91,SW,230,1.0,1.0,93,0.00,,,0.00,weatherlink.com 1.10,2013-07-23 07:12:00,
2013-07-23 03:27:00,75.2,73.0,29.91,SE,141,0.0,3.0,93,0.00,,,0.00,weatherlink.com 1.10,2013-07-23 07:27:00,
2013-07-23 03:42:00,75.1,73.0,29.91,WSW,257,0.0,4.0,93,0.00,,,0.00,weatherlink.com 1.10,2013-07-23 07:42:00,
2013-07-23 03:57:00,75.1,73.0,29.90,SW,232,0.0,3.0,94,0.00,,,0.00,weatherlink.com 1.10,2013-07-23 07:57:00,
2013-07-23 04:12:00,75.0,73.0,29.90,SW,214,1.0,4.0,94,0.00,,,0.00,weatherlink.com 1.10,2013-07-23 08:12:00,
2013-07-23 04:27:00,74.8,73.0,29.90,SW,217,1.0,3.0,94,0.00,,,0.00,weatherlink.com 1.10,2013-07-23 08:27:00,
2013-07-23 04:42:00,74.7,73.0,29.90,SW,219,0.0,1.0,95,0.00,,,0.00,weatherlink.com 1.10,2013-07-23 08:42:00,
2013-07-23 04:57:00,74.6,73.0,29.90,SSW,210,0.0,3.0,95,0.00,,,0.00,weatherlink.com 1.10,2013-07-23 08:57:00,
2013-07-23 05:12:00,74.4,73.0,29.90,ESE,118,1.0,3.0,95,0.00,,,0.00,weatherlink.com 1.10,2013-07-23 09:12:00,
2013-07-23 05:27:00,74.3,73.0,29.90,SSW,211,0.0,2.0,95,0.00,,,0.00,weatherlink.com 1.10,2013-07-23 09:27:00,
2013-07-23 05:42:00,74.1,73.0,29.90,NE,54,0.0,3.0,95,0.00,,,0.00,weatherlink.com 1.10,2013-07-23 09:42:00,
2013-07-23 05:57:00,74.0,73.0,29.91,SW,220,0.0,1.0,95,0.00,,,0.00,weatherlink.com 1.10,2013-07-23 09:57:00,
2013-07-23 06:12:00,74.0,73.0,29.90,SSE,167,1.0,2.0,95,0.00,,,0.00,weatherlink.com 1.10,2013-07-23 10:12:00,
2013-07-23 06:27:00,74.1,73.0,29.91,South,186,0.0,3.0,95,0.00,,,0.00,weatherlink.com 1.10,2013-07-23 10:27:00,
2013-07-23 06:42:00,74.3,73.0,29.91,SSE,151,2.0,3.0,95,0.00,,,0.00,weatherlink.com 1.10,2013-07-23 10:42:00,
2013-07-23 06:57:00,74.7,73.0,29.91,ENE,60,1.0,2.0,94,0.00,,,0.00,weatherlink.com 1.10,2013-07-23 10:57:00,
2013-07-23 07:12:00,75.1,73.0,29.91,SW,224,2.0,2.0,93,0.00,,,0.00,weatherlink.com 1.10,2013-07-23 11:12:00,
2013-07-23 07:27:00,75.2,73.0,29.91,SW,226,0.0,4.0,92,0.00,,,0.00,weatherlink.com 1.10,2013-07-23 11:27:00,
2013-07-23 07:42:00,75.3,73.0,29.91,SW,224,1.0,4.0,92,0.00,,,0.00,weatherlink.com 1.10,2013-07-23 11:42:00,
2013-07-23 07:57:00,75.4,73.0,29.91,West,259,1.0,4.0,91,0.00,,,0.00,weatherlink.com 1.10,2013-07-23 11:57:00,
2013-07-23 08:12:00,76.3,74.0,29.91,SW,214,1.0,2.0,91,0.00,,,0.00,weatherlink.com 1.10,2013-07-23 12:12:00,
2013-07-23 08:27:00,76.8,73.0,29.91,ESE,118,1.0,3.0,89,0.00,,,0.00,weatherlink.com 1.10,2013-07-23 12:27:00,
2013-07-23 08:42:00,77.1,74.0,29.91,WSW,238,0.0,4.0,89,0.00,,,0.00,weatherlink.com 1.10,2013-07-23 12:42:00,
2013-07-23 08:57:00,77.4,73.0,29.91,West,265,1.0,5.0,87,0.00,,,0.00,weatherlink.com 1.10,2013-07-23 12:57:00,
2013-07-23 09:12:00,77.6,74.0,29.91,NW,314,0.0,3.0,88,0.00,,,0.00,weatherlink.com 1.10,2013-07-23 13:12:00,
2013-07-23 09:27:00,77.7,74.0,29.90,West,281,0.0,4.0,87,0.00,,,0.00,weatherlink.com 1.10,2013-07-23 13:27:00,
2013-07-23 09:42:00,78.1,74.0,29.90,NW,309,0.0,3.0,87,0.00,,,0.00,weatherlink.com 1.10,2013-07-23 13:42:00,
2013-07-23 09:57:00,78.2,74.0,29.90,South,176,0.0,5.0,87,0.00,,,0.00,weatherlink.com 1.10,2013-07-23 13:57:00,
2013-07-23 10:12:00,78.5,74.0,29.90,NW,314,1.0,4.0,87,0.00,,,0.00,weatherlink.com 1.10,2013-07-23 14:12:00,
2013-07-23 10:27:00,79.3,75.0,29.89,WNW,301,1.0,6.0,85,0.00,,,0.00,weatherlink.com 1.10,2013-07-23 14:27:00,
2013-07-23 10:42:00,80.1,75.0,29.90,WSW,245,2.0,3.0,84,0.00,,,0.00,weatherlink.com 1.10,2013-07-23 14:42:00,
2013-07-23 10:57:00,80.4,75.0,29.90,SSW,210,1.0,3.0,83,0.00,,,0.00,weatherlink.com 1.10,2013-07-23 14:57:00,
2013-07-23 11:12:00,81.2,75.0,29.89,WSW,249,0.0,4.0,82,0.00,,,0.00,weatherlink.com 1.10,2013-07-23 15:12:00,
2013-07-23 11:27:00,82.3,76.0,29.90,SW,228,1.0,8.0,80,0.00,,,0.00,weatherlink.com 1.10,2013-07-23 15:27:00,
2013-07-23 11:42:00,83.2,76.0,29.89,SE,145,5.0,5.0,79,0.00,,,0.00,weatherlink.com 1.10,2013-07-23 15:42:00,
2013-07-23 11:57:00,83.0,75.0,29.89,SW,233,4.0,7.0,77,0.00,,,0.00,weatherlink.com 1.10,2013-07-23 15:57:00,
2013-07-23 12:12:00,83.5,75.0,29.89,WNW,298,3.0,5.0,76,0.00,,,0.00,weatherlink.com 1.10,2013-07-23 16:12:00,
2013-07-23 12:27:00,83.4,76.0,29.89,ESE,112,1.0,3.0,77,0.00,,,0.00,weatherlink.com 1.10,2013-07-23 16:27:00,
2013-07-23 12:42:00,84.2,76.0,29.89,WSW,252,1.0,5.0,76,0.00,,,0.00,weatherlink.com 1.10,2013-07-23 16:42:00,
2013-07-23 12:58:00,84.7,76.0,29.89,WSW,238,4.0,4.0,76,0.00,,,0.00,weatherlink.com 1.10,2013-07-23 16:58:00,
2013-07-23 13:13:00,85.1,76.0,29.88,WNW,285,2.0,4.0,74,0.00,,,0.00,weatherlink.com 1.10,2013-07-23 17:13:00,
2013-07-23 13:28:00,86.1,75.0,29.87,WNW,302,1.0,8.0,70,0.00,,,0.00,weatherlink.com 1.10,2013-07-23 17:28:00,
2013-07-23 13:43:00,87.3,76.0,29.87,SSW,205,1.0,5.0,69,0.00,,,0.00,weatherlink.com 1.10,2013-07-23 17:43:00,
2013-07-23 13:58:00,87.6,76.0,29.86,WNW,286,1.0,6.0,69,0.00,,,0.00,weatherlink.com 1.10,2013-07-23 17:58:00,
2013-07-23 14:13:00,87.9,76.0,29.86,SW,232,3.0,6.0,67,0.00,,,0.00,weatherlink.com 1.10,2013-07-23 18:13:00,
2013-07-23 14:28:00,88.2,76.0,29.85,NE,53,3.0,4.0,67,0.00,,,0.00,weatherlink.com 1.10,2013-07-23 18:28:00,
2013-07-23 14:43:00,89.0,76.0,29.84,SW,235,2.0,4.0,65,0.00,,,0.00,weatherlink.com 1.10,2013-07-23 18:43:00,
2013-07-23 14:59:00,88.6,75.0,29.84,SW,232,1.0,3.0,65,0.00,,,0.00,weatherlink.com 1.10,2013-07-23 18:59:00,
2013-07-23 15:13:00,88.8,76.0,29.84,SW,235,2.0,4.0,65,0.00,,,0.00,weatherlink.com 1.10,2013-07-23 19:13:00,
2013-07-23 15:28:00,88.1,75.0,29.84,SW,232,2.0,4.0,66,0.00,,,0.00,weatherlink.com 1.10,2013-07-23 19:28:00,
2013-07-23 15:43:00,88.7,77.0,29.83,South,172,1.0,5.0,68,0.00,,,0.00,weatherlink.com 1.10,2013-07-23 19:43:00,
2013-07-23 15:58:00,88.5,76.0,29.83,WNW,295,1.0,4.0,66,0.00,,,0.00,weatherlink.com 1.10,2013-07-23 19:58:00,
2013-07-23 16:13:00,89.0,75.0,29.82,WSW,240,0.0,4.0,64,0.00,,,0.00,weatherlink.com 1.10,2013-07-23 20:13:00,
2013-07-23 16:28:00,88.6,75.0,29.82,SW,229,1.0,5.0,65,0.00,,,0.00,weatherlink.com 1.10,2013-07-23 20:28:00,
2013-07-23 16:58:00,88.3,75.0,29.82,South,188,1.0,8.0,65,0.00,,,0.00,weatherlink.com 1.10,2013-07-23 20:58:00,
2013-07-23 17:13:00,89.0,75.0,29.82,SW,226,1.0,2.0,64,0.00,,,0.00,weatherlink.com 1.10,2013-07-23 21:13:00,
2013-07-23 17:43:00,88.1,76.0,29.81,West,263,1.0,3.0,67,0.00,,,0.00,weatherlink.com 1.10,2013-07-23 21:43:00,
2013-07-23 17:58:00,88.3,76.0,29.81,SW,236,1.0,4.0,66,0.00,,,0.00,weatherlink.com 1.10,2013-07-23 21:58:00,
2013-07-23 18:13:00,87.9,76.0,29.80,SW,235,0.0,2.0,67,0.00,,,0.00,weatherlink.com 1.10,2013-07-23 22:13:00,
2013-07-23 18:28:00,87.2,75.0,29.80,WNW,287,0.0,3.0,67,0.00,,,0.00,weatherlink.com 1.10,2013-07-23 22:28:00,
2013-07-23 18:43:00,86.3,75.0,29.80,West,281,0.0,2.0,69,0.00,,,0.00,weatherlink.com 1.10,2013-07-23 22:43:00,
2013-07-23 18:58:00,85.5,75.0,29.80,SSE,166,0.0,4.0,71,0.00,,,0.00,weatherlink.com 1.10,2013-07-23 22:58:00,
2013-07-23 19:13:00,84.9,75.0,29.80,SW,217,0.0,1.0,72,0.00,,,0.00,weatherlink.com 1.10,2013-07-23 23:13:00,
2013-07-23 19:28:00,84.2,75.0,29.80,SW,219,0.0,1.0,74,0.00,,,0.00,weatherlink.com 1.10,2013-07-23 23:28:00,
2013-07-23 19:43:00,83.5,75.0,29.81,SW,226,0.0,0.0,76,0.00,,,0.00,weatherlink.com 1.10,2013-07-23 23:43:00,
2013-07-23 19:58:00,82.7,75.0,29.81,SW,226,0.0,1.0,77,0.00,,,0.00,weatherlink.com 1.10,2013-07-23 23:58:00,
2013-07-23 20:13:00,81.9,75.0,29.81,SW,221,0.0,1.0,79,0.00,,,0.00,weatherlink.com 1.10,2013-07-24 00:13:00,
2013-07-23 20:28:00,80.9,75.0,29.81,SW,221,0.0,1.0,81,0.00,,,0.00,weatherlink.com 1.10,2013-07-24 00:28:00,
2013-07-23 20:43:00,80.1,75.0,29.81,SW,221,0.0,0.0,83,0.00,,,0.00,weatherlink.com 1.10,2013-07-24 00:43:00,
2013-07-23 20:58:00,79.4,74.0,29.82,SW,221,0.0,0.0,84,0.00,,,0.00,weatherlink.com 1.10,2013-07-24 00:58:00,
2013-07-23 21:13:00,78.8,74.0,29.83,SW,221,0.0,0.0,86,0.00,,,0.00,weatherlink.com 1.10,2013-07-24 01:13:00,
2013-07-23 21:28:00,78.1,74.0,29.83,SW,221,0.0,0.0,87,0.00,,,0.00,weatherlink.com 1.10,2013-07-24 01:28:00,
2013-07-23 21:43:00,78.2,74.0,29.84,SW,221,0.0,0.0,87,0.00,,,0.00,weatherlink.com 1.10,2013-07-24 01:43:00,
2013-07-23 22:13:00,78.1,74.0,29.85,South,172,0.0,1.0,87,0.00,,,0.00,weatherlink.com 1.10,2013-07-24 02:13:00,
2013-07-23 22:28:00,78.4,74.0,29.85,SW,231,0.0,2.0,85,0.00,,,0.00,weatherlink.com 1.10,2013-07-24 02:28:00,
2013-07-23 22:43:00,78.8,74.0,29.85,WSW,246,0.0,1.0,84,0.00,,,0.00,weatherlink.com 1.10,2013-07-24 02:43:00,
2013-07-23 23:28:00,79.3,74.0,29.84,SW,229,0.0,2.0,84,0.00,,,0.00,weatherlink.com 1.10,2013-07-24 03:28:00,
2013-07-23 23:43:00,79.1,74.0,29.84,SW,230,0.0,1.0,84,0.00,,,0.00,weatherlink.com 1.10,2013-07-24 03:43:00,
2013-07-23 23:58:00,78.9,74.0,29.84,SW,235,0.0,1.0,85,0.00,,,0.00,weatherlink.com 1.10,2013-07-24 03:58:00,